sensor_id;sensor_type;location;lat;lon;timestamp;pressure;altitude;pressure_sealevel;temperature;humidity
21826;BME280;11075;47.944;11.776;2023-09-19T00:00:44;94565.34;;;3.83;100.00
21826;BME280;11075;47.944;11.776;2023-09-19T00:03:14;94566.13;;;3.84;100.00
21826;BME280;11075;47.944;11.776;2023-09-19T00:05:41;94560.19;;;3.87;100.00
21826;BME280;11075;47.944;11.776;2023-09-19T00:08:12;94558.38;;;4.10;100.00
21826;BME280;11075;47.944;11.776;2023-09-19T00:10:40;94561.16;;;4.04;100.00
21826;BME280;11075;47.944;11.776;2023-09-19T00:13:09;94560.28;;;3.95;100.00
21826;BME280;11075;47.944;11.776;2023-09-19T00:15:47;94563.84;;;4.04;100.00
21826;BME280;11075;47.944;11.776;2023-09-19T00:18:19;94561.09;;;4.32;100.00
21826;BME280;11075;47.944;11.776;2023-09-19T00:20:51;94565.06;;;4.34;100.00
21826;BME280;11075;47.944;11.776;2023-09-19T00:23:19;94562.94;;;4.45;100.00
21826;BME280;11075;47.944;11.776;2023-09-19T00:25:47;94564.94;;;4.76;100.00
21826;BME280;11075;47.944;11.776;2023-09-19T00:28:14;94563.66;;;4.37;100.00
21826;BME280;11075;47.944;11.776;2023-09-19T00:30:43;94563.09;;;4.26;100.00
21826;BME280;11075;47.944;11.776;2023-09-19T00:33:11;94568.34;;;4.18;100.00
21826;BME280;11075;47.944;11.776;2023-09-19T00:35:50;94570.13;;;4.22;100.00
21826;BME280;11075;47.944;11.776;2023-09-19T00:38:18;94569.00;;;4.37;100.00
21826;BME280;11075;47.944;11.776;2023-09-19T00:40:48;94567.38;;;4.14;100.00
21826;BME280;11075;47.944;11.776;2023-09-19T00:43:15;94565.34;;;4.33;100.00
21826;BME280;11075;47.944;11.776;2023-09-19T00:45:45;94570.38;;;4.34;100.00
21826;BME280;11075;47.944;11.776;2023-09-19T00:48:12;94562.25;;;4.03;100.00
21826;BME280;11075;47.944;11.776;2023-09-19T00:50:41;94559.88;;;4.02;100.00
21826;BME280;11075;47.944;11.776;2023-09-19T00:53:09;94566.50;;;4.04;100.00
21826;BME280;11075;47.944;11.776;2023-09-19T00:55:40;94572.91;;;4.03;100.00
21826;BME280;11075;47.944;11.776;2023-09-19T00:58:10;94569.31;;;4.35;100.00
21826;BME280;11075;47.944;11.776;2023-09-19T01:00:37;94568.47;;;4.49;100.00
21826;BME280;11075;47.944;11.776;2023-09-19T01:03:05;94574.97;;;4.20;100.00
21826;BME280;11075;47.944;11.776;2023-09-19T01:05:33;94565.63;;;4.45;100.00
21826;BME280;11075;47.944;11.776;2023-09-19T01:08:00;94575.38;;;4.14;100.00
21826;BME280;11075;47.944;11.776;2023-09-19T01:10:27;94572.88;;;4.31;100.00
21826;BME280;11075;47.944;11.776;2023-09-19T01:13:05;94579.06;;;4.40;100.00
21826;BME280;11075;47.944;11.776;2023-09-19T01:21:23;94588.28;;;4.34;100.00
21826;BME280;11075;47.944;11.776;2023-09-19T01:29:38;94597.47;;;4.78;100.00
21826;BME280;11075;47.944;11.776;2023-09-19T01:32:08;94600.19;;;4.50;100.00
21826;BME280;11075;47.944;11.776;2023-09-19T01:34:56;94600.56;;;4.57;100.00
21826;BME280;11075;47.944;11.776;2023-09-19T01:37:25;94613.97;;;4.30;100.00
21826;BME280;11075;47.944;11.776;2023-09-19T01:42:39;94608.88;;;3.92;100.00
21826;BME280;11075;47.944;11.776;2023-09-19T01:45:22;94618.16;;;3.95;100.00
21826;BME280;11075;47.944;11.776;2023-09-19T01:47:54;94616.81;;;4.47;100.00
21826;BME280;11075;47.944;11.776;2023-09-19T01:50:32;94622.13;;;4.47;100.00
21826;BME280;11075;47.944;11.776;2023-09-19T01:53:24;94628.81;;;4.72;100.00
21826;BME280;11075;47.944;11.776;2023-09-19T01:55:55;94635.75;;;4.59;100.00
21826;BME280;11075;47.944;11.776;2023-09-19T01:58:42;94637.16;;;4.43;100.00
21826;BME280;11075;47.944;11.776;2023-09-19T02:01:15;94645.41;;;4.05;100.00
21826;BME280;11075;47.944;11.776;2023-09-19T02:03:46;94654.16;;;4.33;100.00
21826;BME280;11075;47.944;11.776;2023-09-19T02:06:14;94656.06;;;4.33;100.00
21826;BME280;11075;47.944;11.776;2023-09-19T02:08:42;94657.72;;;4.43;100.00
21826;BME280;11075;47.944;11.776;2023-09-19T02:11:09;94648.44;;;4.40;100.00
21826;BME280;11075;47.944;11.776;2023-09-19T02:13:36;94637.28;;;4.24;100.00
21826;BME280;11075;47.944;11.776;2023-09-19T02:16:05;94626.31;;;4.39;100.00
21826;BME280;11075;47.944;11.776;2023-09-19T02:18:33;94621.53;;;4.50;100.00
21826;BME280;11075;47.944;11.776;2023-09-19T02:21:02;94631.19;;;4.60;100.00
21826;BME280;11075;47.944;11.776;2023-09-19T02:23:30;94630.81;;;4.53;100.00
21826;BME280;11075;47.944;11.776;2023-09-19T02:25:57;94628.59;;;4.82;100.00
21826;BME280;11075;47.944;11.776;2023-09-19T02:28:24;94625.84;;;4.74;100.00
21826;BME280;11075;47.944;11.776;2023-09-19T02:30:52;94630.59;;;4.77;100.00
21826;BME280;11075;47.944;11.776;2023-09-19T02:33:18;94623.06;;;4.79;100.00
21826;BME280;11075;47.944;11.776;2023-09-19T02:35:45;94637.16;;;4.93;100.00
21826;BME280;11075;47.944;11.776;2023-09-19T02:38:12;94635.06;;;4.67;100.00
21826;BME280;11075;47.944;11.776;2023-09-19T02:40:41;94633.06;;;4.59;100.00
21826;BME280;11075;47.944;11.776;2023-09-19T02:43:10;94648.00;;;4.60;100.00
21826;BME280;11075;47.944;11.776;2023-09-19T02:45:37;94641.72;;;4.92;100.00
21826;BME280;11075;47.944;11.776;2023-09-19T02:48:04;94647.53;;;4.94;100.00
21826;BME280;11075;47.944;11.776;2023-09-19T02:50:31;94644.91;;;4.81;100.00
21826;BME280;11075;47.944;11.776;2023-09-19T02:52:58;94642.84;;;4.78;100.00
21826;BME280;11075;47.944;11.776;2023-09-19T02:55:25;94646.94;;;4.97;100.00
21826;BME280;11075;47.944;11.776;2023-09-19T02:57:54;94646.22;;;4.69;100.00
21826;BME280;11075;47.944;11.776;2023-09-19T03:00:24;94634.13;;;5.08;100.00
21826;BME280;11075;47.944;11.776;2023-09-19T03:02:54;94639.50;;;4.58;100.00
21826;BME280;11075;47.944;11.776;2023-09-19T03:05:22;94646.06;;;4.38;100.00
21826;BME280;11075;47.944;11.776;2023-09-19T03:07:53;94651.00;;;4.45;100.00
21826;BME280;11075;47.944;11.776;2023-09-19T03:10:23;94644.84;;;4.72;100.00
21826;BME280;11075;47.944;11.776;2023-09-19T03:12:52;94644.84;;;4.72;100.00
21826;BME280;11075;47.944;11.776;2023-09-19T03:15:19;94641.00;;;4.64;100.00
21826;BME280;11075;47.944;11.776;2023-09-19T03:17:48;94641.59;;;4.61;100.00
21826;BME280;11075;47.944;11.776;2023-09-19T03:20:19;94649.22;;;4.40;100.00
21826;BME280;11075;47.944;11.776;2023-09-19T03:22:48;94644.09;;;4.17;100.00
21826;BME280;11075;47.944;11.776;2023-09-19T03:25:16;94646.88;;;4.12;100.00
21826;BME280;11075;47.944;11.776;2023-09-19T03:27:47;94651.41;;;4.38;100.00
21826;BME280;11075;47.944;11.776;2023-09-19T03:30:14;94646.59;;;4.13;100.00
21826;BME280;11075;47.944;11.776;2023-09-19T03:32:49;94648.44;;;4.26;100.00
21826;BME280;11075;47.944;11.776;2023-09-19T03:35:18;94632.03;;;4.47;100.00
21826;BME280;11075;47.944;11.776;2023-09-19T03:37:46;94641.34;;;4.22;100.00
21826;BME280;11075;47.944;11.776;2023-09-19T03:40:14;94651.81;;;4.32;100.00
21826;BME280;11075;47.944;11.776;2023-09-19T03:42:42;94642.34;;;4.76;100.00
21826;BME280;11075;47.944;11.776;2023-09-19T03:45:12;94638.81;;;4.66;99.48
21826;BME280;11075;47.944;11.776;2023-09-19T03:47:44;94651.59;;;4.42;100.00
21826;BME280;11075;47.944;11.776;2023-09-19T03:50:16;94644.47;;;4.37;100.00
21826;BME280;11075;47.944;11.776;2023-09-19T03:52:44;94647.84;;;4.43;100.00
21826;BME280;11075;47.944;11.776;2023-09-19T03:55:12;94644.88;;;4.31;100.00
21826;BME280;11075;47.944;11.776;2023-09-19T03:57:39;94647.47;;;3.81;100.00
21826;BME280;11075;47.944;11.776;2023-09-19T04:00:08;94649.34;;;4.22;100.00
21826;BME280;11075;47.944;11.776;2023-09-19T04:02:39;94646.25;;;4.42;100.00
21826;BME280;11075;47.944;11.776;2023-09-19T04:05:07;94656.66;;;4.30;100.00
21826;BME280;11075;47.944;11.776;2023-09-19T04:07:34;94655.75;;;4.21;100.00
21826;BME280;11075;47.944;11.776;2023-09-19T04:10:02;94658.22;;;4.31;100.00
21826;BME280;11075;47.944;11.776;2023-09-19T04:12:29;94666.91;;;4.36;100.00
21826;BME280;11075;47.944;11.776;2023-09-19T04:14:56;94661.41;;;4.05;100.00
21826;BME280;11075;47.944;11.776;2023-09-19T04:17:23;94670.09;;;3.97;100.00
21826;BME280;11075;47.944;11.776;2023-09-19T04:19:51;94663.38;;;4.14;100.00
21826;BME280;11075;47.944;11.776;2023-09-19T04:22:17;94671.56;;;3.90;100.00
21826;BME280;11075;47.944;11.776;2023-09-19T04:24:45;94678.75;;;4.44;100.00
21826;BME280;11075;47.944;11.776;2023-09-19T04:27:12;94678.00;;;4.16;100.00
21826;BME280;11075;47.944;11.776;2023-09-19T04:29:41;94673.75;;;4.15;100.00
21826;BME280;11075;47.944;11.776;2023-09-19T04:32:11;94674.53;;;4.16;100.00
21826;BME280;11075;47.944;11.776;2023-09-19T04:34:39;94681.53;;;4.25;100.00
21826;BME280;11075;47.944;11.776;2023-09-19T04:37:07;94688.34;;;4.18;100.00
21826;BME280;11075;47.944;11.776;2023-09-19T04:39:34;94688.72;;;3.70;100.00
21826;BME280;11075;47.944;11.776;2023-09-19T04:42:01;94698.06;;;3.67;100.00
21826;BME280;11075;47.944;11.776;2023-09-19T04:44:27;94699.41;;;3.65;100.00
21826;BME280;11075;47.944;11.776;2023-09-19T04:46:54;94706.06;;;3.67;100.00
21826;BME280;11075;47.944;11.776;2023-09-19T04:49:21;94707.56;;;3.73;100.00
21826;BME280;11075;47.944;11.776;2023-09-19T04:51:48;94711.09;;;3.69;100.00
21826;BME280;11075;47.944;11.776;2023-09-19T04:54:15;94710.75;;;3.57;100.00
21826;BME280;11075;47.944;11.776;2023-09-19T04:56:42;94703.22;;;3.78;100.00
21826;BME280;11075;47.944;11.776;2023-09-19T04:59:09;94711.28;;;3.40;100.00
21826;BME280;11075;47.944;11.776;2023-09-19T05:01:37;94714.91;;;3.63;100.00
21826;BME280;11075;47.944;11.776;2023-09-19T05:04:04;94717.19;;;4.16;100.00
21826;BME280;11075;47.944;11.776;2023-09-19T05:06:32;94720.34;;;3.90;100.00
21826;BME280;11075;47.944;11.776;2023-09-19T05:09:00;94713.41;;;3.89;100.00
21826;BME280;11075;47.944;11.776;2023-09-19T05:11:26;94727.88;;;3.69;100.00
21826;BME280;11075;47.944;11.776;2023-09-19T05:13:53;94728.41;;;3.85;100.00
21826;BME280;11075;47.944;11.776;2023-09-19T05:16:21;94730.84;;;3.68;100.00
21826;BME280;11075;47.944;11.776;2023-09-19T05:18:48;94738.84;;;3.68;100.00
21826;BME280;11075;47.944;11.776;2023-09-19T05:21:16;94738.56;;;3.51;100.00
21826;BME280;11075;47.944;11.776;2023-09-19T05:23:44;94749.91;;;3.75;100.00
21826;BME280;11075;47.944;11.776;2023-09-19T05:26:11;94738.91;;;3.63;100.00
21826;BME280;11075;47.944;11.776;2023-09-19T05:28:39;94740.53;;;4.24;100.00
21826;BME280;11075;47.944;11.776;2023-09-19T05:31:06;94742.47;;;4.04;100.00
21826;BME280;11075;47.944;11.776;2023-09-19T05:33:33;94754.94;;;4.23;100.00
21826;BME280;11075;47.944;11.776;2023-09-19T05:36:00;94754.56;;;4.43;99.94
21826;BME280;11075;47.944;11.776;2023-09-19T05:38:26;94753.97;;;4.32;100.00
21826;BME280;11075;47.944;11.776;2023-09-19T05:41:19;94761.44;;;4.03;100.00
21826;BME280;11075;47.944;11.776;2023-09-19T05:43:49;94761.25;;;3.67;100.00
21826;BME280;11075;47.944;11.776;2023-09-19T05:46:16;94771.13;;;4.13;100.00
21826;BME280;11075;47.944;11.776;2023-09-19T05:48:44;94771.78;;;3.91;100.00
21826;BME280;11075;47.944;11.776;2023-09-19T05:51:11;94769.38;;;4.49;100.00
21826;BME280;11075;47.944;11.776;2023-09-19T05:53:38;94775.47;;;4.08;100.00
21826;BME280;11075;47.944;11.776;2023-09-19T05:56:05;94773.63;;;4.36;100.00
21826;BME280;11075;47.944;11.776;2023-09-19T05:58:32;94769.28;;;4.95;100.00
21826;BME280;11075;47.944;11.776;2023-09-19T06:00:59;94772.06;;;4.49;100.00
21826;BME280;11075;47.944;11.776;2023-09-19T06:03:26;94775.69;;;4.39;100.00
21826;BME280;11075;47.944;11.776;2023-09-19T06:05:53;94775.31;;;4.32;100.00
21826;BME280;11075;47.944;11.776;2023-09-19T06:08:23;94785.63;;;4.66;100.00
21826;BME280;11075;47.944;11.776;2023-09-19T06:10:50;94780.34;;;4.34;100.00
21826;BME280;11075;47.944;11.776;2023-09-19T06:13:19;94779.47;;;4.52;100.00
21826;BME280;11075;47.944;11.776;2023-09-19T06:15:46;94781.56;;;4.83;100.00
21826;BME280;11075;47.944;11.776;2023-09-19T06:18:13;94780.94;;;4.99;100.00
21826;BME280;11075;47.944;11.776;2023-09-19T06:20:43;94786.91;;;4.83;100.00
21826;BME280;11075;47.944;11.776;2023-09-19T06:23:12;94794.50;;;4.89;100.00
21826;BME280;11075;47.944;11.776;2023-09-19T06:25:38;94780.53;;;5.42;100.00
21826;BME280;11075;47.944;11.776;2023-09-19T06:28:06;94791.41;;;5.46;100.00
21826;BME280;11075;47.944;11.776;2023-09-19T06:30:34;94786.78;;;5.74;100.00
21826;BME280;11075;47.944;11.776;2023-09-19T06:33:02;94790.06;;;5.71;100.00
21826;BME280;11075;47.944;11.776;2023-09-19T06:35:32;94779.78;;;6.09;99.75
21826;BME280;11075;47.944;11.776;2023-09-19T06:38:03;94791.94;;;6.15;95.04
21826;BME280;11075;47.944;11.776;2023-09-19T06:40:30;94795.84;;;5.86;97.00
21826;BME280;11075;47.944;11.776;2023-09-19T06:42:58;94794.06;;;5.82;89.73
21826;BME280;11075;47.944;11.776;2023-09-19T06:45:25;94796.16;;;5.49;95.95
21826;BME280;11075;47.944;11.776;2023-09-19T06:47:54;94798.94;;;5.80;90.75
21826;BME280;11075;47.944;11.776;2023-09-19T06:50:25;94792.66;;;6.38;91.30
21826;BME280;11075;47.944;11.776;2023-09-19T06:52:54;94799.13;;;6.68;88.46
21826;BME280;11075;47.944;11.776;2023-09-19T06:55:22;94797.41;;;7.28;86.42
21826;BME280;11075;47.944;11.776;2023-09-19T06:57:52;94802.63;;;7.59;84.05
21826;BME280;11075;47.944;11.776;2023-09-19T07:00:21;94805.84;;;6.96;83.56
21826;BME280;11075;47.944;11.776;2023-09-19T07:03:02;94818.78;;;7.11;83.63
21826;BME280;11075;47.944;11.776;2023-09-19T07:05:33;94813.38;;;6.94;89.04
21826;BME280;11075;47.944;11.776;2023-09-19T07:08:00;94812.44;;;6.90;89.63
21826;BME280;11075;47.944;11.776;2023-09-19T07:10:28;94809.94;;;7.02;85.36
21826;BME280;11075;47.944;11.776;2023-09-19T07:12:56;94814.44;;;6.76;89.91
21826;BME280;11075;47.944;11.776;2023-09-19T07:15:24;94817.88;;;6.68;81.77
21826;BME280;11075;47.944;11.776;2023-09-19T07:17:55;94817.22;;;6.62;83.46
21826;BME280;11075;47.944;11.776;2023-09-19T07:20:23;94825.16;;;7.33;83.24
21826;BME280;11075;47.944;11.776;2023-09-19T07:22:54;94825.19;;;7.50;82.55
21826;BME280;11075;47.944;11.776;2023-09-19T07:25:29;94827.00;;;7.15;79.69
21826;BME280;11075;47.944;11.776;2023-09-19T07:28:00;94826.16;;;7.63;77.02
21826;BME280;11075;47.944;11.776;2023-09-19T07:30:28;94818.56;;;7.39;79.55
21826;BME280;11075;47.944;11.776;2023-09-19T07:32:55;94823.75;;;8.21;78.61
21826;BME280;11075;47.944;11.776;2023-09-19T07:35:22;94827.72;;;8.24;73.23
21826;BME280;11075;47.944;11.776;2023-09-19T07:37:50;94829.94;;;7.79;76.69
21826;BME280;11075;47.944;11.776;2023-09-19T07:40:18;94828.25;;;7.09;79.19
21826;BME280;11075;47.944;11.776;2023-09-19T07:42:47;94827.75;;;6.98;79.90
21826;BME280;11075;47.944;11.776;2023-09-19T07:45:14;94835.72;;;7.29;81.34
21826;BME280;11075;47.944;11.776;2023-09-19T07:47:44;94834.31;;;7.32;87.54
21826;BME280;11075;47.944;11.776;2023-09-19T07:50:13;94835.84;;;8.53;77.83
21826;BME280;11075;47.944;11.776;2023-09-19T07:52:40;94834.31;;;8.35;72.89
21826;BME280;11075;47.944;11.776;2023-09-19T07:55:07;94834.50;;;7.96;77.59
21826;BME280;11075;47.944;11.776;2023-09-19T07:57:38;94827.06;;;8.27;75.99
21826;BME280;11075;47.944;11.776;2023-09-19T08:00:05;94830.25;;;7.69;71.13
21826;BME280;11075;47.944;11.776;2023-09-19T08:02:42;94838.78;;;7.88;79.29
21826;BME280;11075;47.944;11.776;2023-09-19T08:05:12;94827.47;;;7.17;79.51
21826;BME280;11075;47.944;11.776;2023-09-19T08:07:44;94830.22;;;7.43;75.53
21826;BME280;11075;47.944;11.776;2023-09-19T08:10:15;94836.03;;;8.40;72.89
21826;BME280;11075;47.944;11.776;2023-09-19T08:12:43;94840.19;;;7.94;73.72
21826;BME280;11075;47.944;11.776;2023-09-19T08:15:15;94830.97;;;8.47;74.75
21826;BME280;11075;47.944;11.776;2023-09-19T08:17:42;94843.88;;;8.62;68.96
21826;BME280;11075;47.944;11.776;2023-09-19T08:20:10;94844.31;;;8.73;66.40
21826;BME280;11075;47.944;11.776;2023-09-19T08:22:47;94844.47;;;8.76;65.94
21826;BME280;11075;47.944;11.776;2023-09-19T08:25:15;94839.63;;;8.52;67.69
21826;BME280;11075;47.944;11.776;2023-09-19T08:27:45;94847.09;;;8.94;66.24
21826;BME280;11075;47.944;11.776;2023-09-19T08:30:17;94848.47;;;8.62;64.54
21826;BME280;11075;47.944;11.776;2023-09-19T08:32:44;94840.28;;;8.96;63.76
21826;BME280;11075;47.944;11.776;2023-09-19T08:35:13;94843.88;;;10.22;61.10
21826;BME280;11075;47.944;11.776;2023-09-19T08:37:42;94831.19;;;11.13;57.35
21826;BME280;11075;47.944;11.776;2023-09-19T08:40:09;94842.78;;;10.02;57.39
21826;BME280;11075;47.944;11.776;2023-09-19T08:42:53;94820.84;;;11.27;56.40
21826;BME280;11075;47.944;11.776;2023-09-19T08:45:24;94827.13;;;11.43;58.44
21826;BME280;11075;47.944;11.776;2023-09-19T08:51:00;94829.81;;;10.94;58.05
21826;BME280;11075;47.944;11.776;2023-09-19T08:53:36;94823.50;;;10.78;58.13
21826;BME280;11075;47.944;11.776;2023-09-19T08:56:10;94836.72;;;9.42;64.84
21826;BME280;11075;47.944;11.776;2023-09-19T08:59:05;94828.94;;;10.12;57.03
21826;BME280;11075;47.944;11.776;2023-09-19T09:01:37;94831.50;;;12.28;55.51
21826;BME280;11075;47.944;11.776;2023-09-19T09:04:09;94825.09;;;12.32;55.81
21826;BME280;11075;47.944;11.776;2023-09-19T09:06:40;94834.97;;;11.72;54.80
21826;BME280;11075;47.944;11.776;2023-09-19T09:09:10;94834.41;;;10.36;54.06
21826;BME280;11075;47.944;11.776;2023-09-19T09:11:38;94841.09;;;8.97;56.30
21826;BME280;11075;47.944;11.776;2023-09-19T09:14:07;94839.78;;;10.82;53.34
21826;BME280;11075;47.944;11.776;2023-09-19T09:16:34;94848.94;;;10.23;52.50
21826;BME280;11075;47.944;11.776;2023-09-19T09:19:01;94832.44;;;11.92;50.50
21826;BME280;11075;47.944;11.776;2023-09-19T09:21:28;94838.53;;;11.77;50.80
21826;BME280;11075;47.944;11.776;2023-09-19T09:23:55;94836.34;;;13.10;48.32
21826;BME280;11075;47.944;11.776;2023-09-19T09:29:03;94842.06;;;11.40;49.00
21826;BME280;11075;47.944;11.776;2023-09-19T09:31:30;94850.75;;;9.77;50.52
21826;BME280;11075;47.944;11.776;2023-09-19T09:33:58;94856.03;;;10.61;53.11
21826;BME280;11075;47.944;11.776;2023-09-19T09:36:38;94855.19;;;8.85;54.93
21826;BME280;11075;47.944;11.776;2023-09-19T09:39:07;94847.19;;;10.06;57.13
21826;BME280;11075;47.944;11.776;2023-09-19T09:41:45;94843.78;;;8.97;55.45
21826;BME280;11075;47.944;11.776;2023-09-19T09:44:15;94842.47;;;9.82;56.12
21826;BME280;11075;47.944;11.776;2023-09-19T09:46:46;94844.09;;;9.54;59.05
21826;BME280;11075;47.944;11.776;2023-09-19T09:49:27;94844.72;;;9.30;58.36
21826;BME280;11075;47.944;11.776;2023-09-19T09:52:07;94849.50;;;9.54;56.94
21826;BME280;11075;47.944;11.776;2023-09-19T09:54:38;94842.09;;;9.72;57.20
21826;BME280;11075;47.944;11.776;2023-09-19T09:57:07;94847.00;;;8.73;61.23
21826;BME280;11075;47.944;11.776;2023-09-19T09:59:53;94849.38;;;8.83;62.53
21826;BME280;11075;47.944;11.776;2023-09-19T10:02:29;94846.66;;;7.84;63.21
21826;BME280;11075;47.944;11.776;2023-09-19T10:05:11;94855.31;;;8.33;67.26
21826;BME280;11075;47.944;11.776;2023-09-19T10:08:10;94853.56;;;8.46;64.65
21826;BME280;11075;47.944;11.776;2023-09-19T10:10:39;94833.38;;;11.71;57.83
21826;BME280;11075;47.944;11.776;2023-09-19T10:13:13;94848.09;;;13.33;50.88
21826;BME280;11075;47.944;11.776;2023-09-19T10:15:50;94839.03;;;12.34;51.08
21826;BME280;11075;47.944;11.776;2023-09-19T10:18:26;94836.84;;;12.12;49.09
21826;BME280;11075;47.944;11.776;2023-09-19T10:20:56;94838.16;;;10.56;53.50
21826;BME280;11075;47.944;11.776;2023-09-19T10:23:26;94847.34;;;9.39;56.85
21826;BME280;11075;47.944;11.776;2023-09-19T10:25:56;94847.66;;;9.08;57.27
21826;BME280;11075;47.944;11.776;2023-09-19T10:28:27;94862.47;;;8.84;61.20
21826;BME280;11075;47.944;11.776;2023-09-19T10:30:56;94848.75;;;10.73;54.68
21826;BME280;11075;47.944;11.776;2023-09-19T10:33:25;94847.59;;;11.07;50.75
21826;BME280;11075;47.944;11.776;2023-09-19T10:35:59;94846.69;;;13.39;47.84
21826;BME280;11075;47.944;11.776;2023-09-19T10:38:27;94865.50;;;9.92;53.35
21826;BME280;11075;47.944;11.776;2023-09-19T10:40:56;94861.41;;;9.15;56.62
21826;BME280;11075;47.944;11.776;2023-09-19T10:43:32;94862.03;;;9.12;56.41
21826;BME280;11075;47.944;11.776;2023-09-19T10:46:06;94859.47;;;8.86;55.72
21826;BME280;11075;47.944;11.776;2023-09-19T10:48:34;94862.28;;;8.17;59.12
21826;BME280;11075;47.944;11.776;2023-09-19T10:51:15;94842.75;;;12.74;47.11
21826;BME280;11075;47.944;11.776;2023-09-19T10:54:06;94848.09;;;10.31;51.24
21826;BME280;11075;47.944;11.776;2023-09-19T10:56:36;94852.84;;;9.93;52.93
21826;BME280;11075;47.944;11.776;2023-09-19T10:59:15;94851.28;;;10.25;50.95
21826;BME280;11075;47.944;11.776;2023-09-19T11:04:30;94849.03;;;12.06;47.02
21826;BME280;11075;47.944;11.776;2023-09-19T11:09:51;94844.03;;;12.20;42.64
21826;BME280;11075;47.944;11.776;2023-09-19T11:15:03;94852.38;;;10.11;50.00
21826;BME280;11075;47.944;11.776;2023-09-19T11:17:41;94852.94;;;12.64;44.23
21826;BME280;11075;47.944;11.776;2023-09-19T11:30:36;94843.22;;;16.96;37.12
21826;BME280;11075;47.944;11.776;2023-09-19T11:33:30;94846.44;;;15.21;39.76
21826;BME280;11075;47.944;11.776;2023-09-19T11:36:16;94855.75;;;11.72;44.50
21826;BME280;11075;47.944;11.776;2023-09-19T11:43:54;94836.81;;;13.62;42.19
21826;BME280;11075;47.944;11.776;2023-09-19T11:46:54;94844.81;;;12.49;42.00
21826;BME280;11075;47.944;11.776;2023-09-19T11:49:31;94835.03;;;13.54;41.31
21826;BME280;11075;47.944;11.776;2023-09-19T11:52:00;94831.09;;;13.17;41.57
21826;BME280;11075;47.944;11.776;2023-09-19T11:54:29;94840.47;;;13.89;41.40
21826;BME280;11075;47.944;11.776;2023-09-19T11:56:59;94834.38;;;13.42;40.50
21826;BME280;11075;47.944;11.776;2023-09-19T11:59:28;94826.78;;;14.40;40.43
21826;BME280;11075;47.944;11.776;2023-09-19T12:04:42;94836.22;;;14.69;39.08
21826;BME280;11075;47.944;11.776;2023-09-19T12:07:13;94829.63;;;15.12;37.07
21826;BME280;11075;47.944;11.776;2023-09-19T12:09:48;94815.72;;;13.72;39.67
21826;BME280;11075;47.944;11.776;2023-09-19T12:12:23;94834.69;;;14.10;38.70
21826;BME280;11075;47.944;11.776;2023-09-19T12:14:54;94829.41;;;13.44;39.08
21826;BME280;11075;47.944;11.776;2023-09-19T12:17:34;94829.44;;;13.98;39.29
21826;BME280;11075;47.944;11.776;2023-09-19T12:20:03;94834.66;;;12.89;40.34
21826;BME280;11075;47.944;11.776;2023-09-19T12:22:44;94835.94;;;12.64;40.28
21826;BME280;11075;47.944;11.776;2023-09-19T12:25:15;94839.28;;;13.36;39.39
21826;BME280;11075;47.944;11.776;2023-09-19T12:27:49;94827.28;;;13.88;42.58
21826;BME280;11075;47.944;11.776;2023-09-19T12:30:27;94830.72;;;13.34;41.73
21826;BME280;11075;47.944;11.776;2023-09-19T12:32:54;94831.31;;;12.64;38.95
21826;BME280;11075;47.944;11.776;2023-09-19T12:35:29;94835.41;;;14.07;39.48
21826;BME280;11075;47.944;11.776;2023-09-19T12:37:57;94829.75;;;13.77;38.78
21826;BME280;11075;47.944;11.776;2023-09-19T12:40:25;94821.16;;;13.91;40.67
21826;BME280;11075;47.944;11.776;2023-09-19T12:42:56;94820.09;;;12.94;40.19
21826;BME280;11075;47.944;11.776;2023-09-19T12:45:25;94823.06;;;12.73;40.09
21826;BME280;11075;47.944;11.776;2023-09-19T12:48:18;94828.47;;;12.89;40.69
21826;BME280;11075;47.944;11.776;2023-09-19T12:51:10;94823.31;;;13.31;39.36
21826;BME280;11075;47.944;11.776;2023-09-19T12:53:43;94823.22;;;11.81;42.85
21826;BME280;11075;47.944;11.776;2023-09-19T12:56:17;94822.53;;;11.19;44.34
21826;BME280;11075;47.944;11.776;2023-09-19T12:59:03;94815.44;;;11.15;44.96
21826;BME280;11075;47.944;11.776;2023-09-19T13:01:33;94810.53;;;12.37;41.24
21826;BME280;11075;47.944;11.776;2023-09-19T13:06:39;94814.88;;;13.17;40.47
21826;BME280;11075;47.944;11.776;2023-09-19T13:09:10;94811.91;;;13.57;41.87
21826;BME280;11075;47.944;11.776;2023-09-19T13:11:38;94804.19;;;13.94;40.56
21826;BME280;11075;47.944;11.776;2023-09-19T13:14:21;94799.13;;;13.92;41.30
21826;BME280;11075;47.944;11.776;2023-09-19T13:17:06;94813.16;;;13.44;40.07
21826;BME280;11075;47.944;11.776;2023-09-19T13:19:51;94807.00;;;12.64;41.96
21826;BME280;11075;47.944;11.776;2023-09-19T13:22:43;94820.56;;;11.68;42.09
21826;BME280;11075;47.944;11.776;2023-09-19T13:25:16;94807.88;;;11.57;43.94
21826;BME280;11075;47.944;11.776;2023-09-19T13:27:52;94805.38;;;10.54;46.80
21826;BME280;11075;47.944;11.776;2023-09-19T13:30:24;94811.31;;;10.47;45.48
21826;BME280;11075;47.944;11.776;2023-09-19T13:33:03;94800.50;;;11.17;46.63
21826;BME280;11075;47.944;11.776;2023-09-19T13:35:32;94792.31;;;11.01;43.99
21826;BME280;11075;47.944;11.776;2023-09-19T13:37:59;94799.09;;;10.17;47.35
21826;BME280;11075;47.944;11.776;2023-09-19T13:40:27;94789.97;;;11.64;44.91
21826;BME280;11075;47.944;11.776;2023-09-19T13:42:57;94792.78;;;13.15;40.69
21826;BME280;11075;47.944;11.776;2023-09-19T13:45:24;94806.19;;;11.52;42.94
21826;BME280;11075;47.944;11.776;2023-09-19T13:47:57;94796.38;;;12.28;41.99
21826;BME280;11075;47.944;11.776;2023-09-19T13:50:25;94793.66;;;12.56;39.74
21826;BME280;11075;47.944;11.776;2023-09-19T13:52:53;94806.97;;;12.49;40.15
21826;BME280;11075;47.944;11.776;2023-09-19T13:55:20;94788.56;;;11.30;44.38
21826;BME280;11075;47.944;11.776;2023-09-19T13:57:50;94785.59;;;11.72;44.13
21826;BME280;11075;47.944;11.776;2023-09-19T14:00:19;94788.41;;;12.03;42.67